Time;durP1;ratioP1;P1;durP2;ratioP2;P2;SDS_P1;SDS_P2;PMS_P1;PMS_P2;Temp;Humidity;BMP_temperature;BMP_pressure;BME280_temperature;BME280_humidity;BME280_pressure;Samples;Min_cycle;Max_cycle;Signal;HPM_P1;HPM_P2
2021/10/17 00:01:24;;;;;;;30.40;14.23;;;6.80;76.60;;;;;;4960581;28;20031;-66
2021/10/17 00:03:49;;;;;;;23.45;13.70;;;6.70;77.00;;;;;;4959212;28;20027;-67
2021/10/17 00:06:16;;;;;;;20.00;13.38;;;6.70;77.30;;;;;;4959888;28;20573;-66
2021/10/17 00:08:42;;;;;;;18.25;13.23;;;6.70;78.20;;;;;;4975435;28;20093;-66
2021/10/17 00:11:08;;;;;;;17.60;11.80;;;6.70;77.40;;;;;;4960480;28;20038;-66
2021/10/17 00:13:33;;;;;;;18.08;11.73;;;6.70;77.50;;;;;;4960978;28;20035;-67
2021/10/17 00:15:59;;;;;;;16.30;11.10;;;6.70;77.40;;;;;;4959056;28;20032;-67
2021/10/17 00:18:25;;;;;;;15.65;11.50;;;6.80;77.40;;;;;;4964333;28;20590;-66
2021/10/17 00:20:51;;;;;;;14.18;10.70;;;6.80;77.30;;;;;;4962782;28;20038;-67
2021/10/17 00:23:16;;;;;;;18.63;11.30;;;6.80;77.20;;;;;;4963672;28;20039;-67
2021/10/17 00:25:42;;;;;;;20.73;11.23;;;6.90;77.10;;;;;;4962731;28;20038;-67
2021/10/17 00:28:07;;;;;;;17.92;11.20;;;6.90;77.00;;;;;;4962792;28;20694;-66
2021/10/17 00:30:33;;;;;;;15.95;11.45;;;6.80;76.80;;;;;;4964010;28;20054;-66
2021/10/17 00:32:59;;;;;;;20.65;11.57;;;6.90;76.80;;;;;;4962721;28;20212;-67
2021/10/17 00:35:25;;;;;;;25.20;11.20;;;6.90;76.80;;;;;;4962972;28;20050;-67
2021/10/17 00:37:50;;;;;;;29.38;11.73;;;6.90;76.40;;;;;;4962836;28;20035;-66
2021/10/17 00:40:19;;;;;;;23.08;10.25;;;6.90;76.00;;;;;;4961783;28;20039;-67
2021/10/17 00:42:46;;;;;;;13.90;9.77;;;6.80;75.90;;;;;;4961647;28;20073;-66
2021/10/17 00:45:18;;;;;;;15.27;10.57;;;6.80;75.90;;;;;;4961141;28;20042;-67
2021/10/17 00:47:44;;;;;;;24.40;10.68;;;6.80;76.30;;;;;;4961960;28;20034;-66
2021/10/17 00:50:10;;;;;;;14.07;10.02;;;6.70;76.30;;;;;;4961036;28;20089;-67
2021/10/17 00:52:38;;;;;;;19.55;10.57;;;6.80;76.40;;;;;;4961212;28;20039;-67
2021/10/17 00:55:05;;;;;;;17.15;11.60;;;6.80;76.50;;;;;;4960116;28;20018;-66
2021/10/17 00:57:36;;;;;;;29.98;10.98;;;6.80;76.50;;;;;;4961388;28;20067;-65
2021/10/17 01:00:03;;;;;;;25.25;11.25;;;6.80;76.50;;;;;;4961883;28;20050;-67
2021/10/17 01:02:29;;;;;;;32.90;12.57;;;6.80;76.40;;;;;;4970087;28;20509;-67
2021/10/17 01:04:54;;;;;;;38.95;12.30;;;6.80;76.40;;;;;;4961279;28;20039;-66
2021/10/17 01:07:20;;;;;;;26.58;11.82;;;6.80;76.50;;;;;;4962106;28;20085;-67
2021/10/17 01:09:45;;;;;;;37.42;12.25;;;6.80;76.50;;;;;;4961820;28;20066;-67
2021/10/17 01:12:13;;;;;;;23.98;12.35;;;6.90;76.50;;;;;;4962289;28;20035;-66
2021/10/17 01:14:38;;;;;;;30.88;13.13;;;6.90;76.60;;;;;;4960798;28;20153;-67
2021/10/17 01:17:04;;;;;;;23.77;12.73;;;6.90;76.50;;;;;;4962783;28;20118;-66
2021/10/17 01:19:30;;;;;;;23.00;13.15;;;6.90;76.50;;;;;;4960375;28;20071;-67
2021/10/17 01:21:55;;;;;;;24.50;13.00;;;6.90;76.40;;;;;;4962621;28;20073;-66
2021/10/17 01:24:21;;;;;;;21.77;12.80;;;6.90;76.50;;;;;;4961551;28;20513;-67
2021/10/17 01:26:47;;;;;;;27.90;12.88;;;6.90;76.30;;;;;;4962015;28;20043;-67
2021/10/17 01:29:13;;;;;;;32.13;12.02;;;6.90;76.20;;;;;;4965696;28;20031;-66
2021/10/17 01:31:42;;;;;;;36.95;12.18;;;6.90;76.10;;;;;;4962039;28;20041;-67
2021/10/17 01:34:08;;;;;;;30.42;11.85;;;6.80;76.10;;;;;;4961785;28;20057;-67
2021/10/17 01:36:36;;;;;;;31.15;11.25;;;6.80;76.10;;;;;;4962072;28;20042;-67
2021/10/17 01:39:04;;;;;;;21.63;10.75;;;6.70;76.30;;;;;;4963202;28;20031;-67
2021/10/17 01:41:30;;;;;;;18.08;10.38;;;6.70;76.50;;;;;;4962741;28;20035;-67
2021/10/17 01:44:02;;;;;;;27.98;10.98;;;6.60;76.60;;;;;;4960452;28;20061;-65
2021/10/17 01:46:28;;;;;;;28.70;11.60;;;6.60;77.00;;;;;;4960918;28;20498;-67
2021/10/17 01:48:54;;;;;;;15.27;10.75;;;6.60;76.90;;;;;;4960589;28;20031;-66
2021/10/17 01:51:19;;;;;;;27.15;10.93;;;6.60;77.00;;;;;;4959866;28;20150;-66
2021/10/17 01:53:45;;;;;;;23.10;11.55;;;6.50;77.10;;;;;;4961657;28;20158;-67
2021/10/17 01:56:11;;;;;;;16.67;11.32;;;6.50;77.00;;;;;;4962103;28;20046;-66
2021/10/17 01:58:36;;;;;;;14.60;11.10;;;6.50;77.20;;;;;;4960598;28;20422;-67
2021/10/17 02:01:02;;;;;;;15.18;11.35;;;6.50;77.30;;;;;;4960843;28;20525;-67
2021/10/17 02:03:28;;;;;;;18.45;12.65;;;6.60;77.40;;;;;;4960500;28;20561;-64
2021/10/17 02:05:54;;;;;;;16.25;12.27;;;6.60;77.30;;;;;;4961045;28;20122;-66
2021/10/17 02:08:19;;;;;;;16.92;11.93;;;6.60;77.10;;;;;;4960655;28;20057;-66
2021/10/17 02:10:45;;;;;;;17.58;12.40;;;6.60;77.10;;;;;;4960591;28;20101;-65
2021/10/17 02:13:11;;;;;;;28.35;13.35;;;6.60;77.10;;;;;;4961824;28;20039;-66
2021/10/17 02:15:36;;;;;;;20.80;13.65;;;6.60;77.00;;;;;;4959732;28;20082;-67
2021/10/17 02:18:02;;;;;;;23.27;13.80;;;6.70;77.20;;;;;;4960580;28;20031;-66
2021/10/17 02:20:32;;;;;;;20.15;14.07;;;6.60;77.10;;;;;;4959556;28;20033;-66
2021/10/17 02:22:58;;;;;;;68.75;14.38;;;6.70;77.10;;;;;;4960266;28;20046;-67
2021/10/17 02:25:24;;;;;;;29.23;13.80;;;6.70;77.00;;;;;;4959911;28;20129;-66
2021/10/17 02:27:50;;;;;;;47.92;14.20;;;6.70;77.00;;;;;;4960635;28;20170;-66
2021/10/17 02:30:16;;;;;;;66.05;14.27;;;6.60;76.80;;;;;;4961077;28;20054;-67
2021/10/17 02:32:41;;;;;;;39.53;12.80;;;6.60;76.70;;;;;;4959865;28;20100;-66
2021/10/17 02:35:07;;;;;;;122.70;14.23;;;6.60;76.70;;;;;;4959443;28;20034;-67
2021/10/17 02:37:33;;;;;;;40.05;13.50;;;6.50;76.80;;;;;;4959666;28;20050;-66
2021/10/17 02:39:59;;;;;;;74.63;13.63;;;6.50;76.90;;;;;;4958723;28;20031;-66
2021/10/17 02:42:24;;;;;;;33.08;13.13;;;6.40;77.00;;;;;;4964487;28;20062;-66
2021/10/17 02:44:50;;;;;;;41.65;13.82;;;6.40;77.20;;;;;;4959643;28;20399;-67
2021/10/17 02:47:15;;;;;;;17.80;12.18;;;6.40;77.40;;;;;;4960393;28;20063;-66
2021/10/17 02:49:42;;;;;;;26.92;12.27;;;6.40;77.60;;;;;;4960425;28;20503;-66
2021/10/17 02:52:08;;;;;;;53.70;13.88;;;6.40;77.70;;;;;;4960279;28;20117;-66
2021/10/17 02:54:33;;;;;;;18.63;12.32;;;6.40;77.70;;;;;;4958673;28;20177;-66
2021/10/17 02:56:59;;;;;;;41.75;12.23;;;6.40;77.60;;;;;;4959988;28;20042;-66
2021/10/17 02:59:25;;;;;;;67.72;12.80;;;6.40;77.60;;;;;;4960292;28;20039;-67
2021/10/17 03:01:51;;;;;;;25.85;13.23;;;6.40;77.60;;;;;;4961476;28;20118;-65
2021/10/17 03:04:17;;;;;;;69.70;13.32;;;6.30;77.80;;;;;;4960029;28;20133;-67
2021/10/17 03:06:43;;;;;;;51.35;13.70;;;6.30;78.00;;;;;;4958931;28;20562;-66
2021/10/17 03:09:08;;;;;;;36.75;14.80;;;6.30;78.10;;;;;;4959720;28;20649;-66
2021/10/17 03:11:35;;;;;;;26.17;13.45;;;6.30;79.00;;;;;;4959707;28;20035;-66
2021/10/17 03:14:02;;;;;;;44.22;14.60;;;6.30;78.30;;;;;;4959151;28;20499;-66
2021/10/17 03:16:28;;;;;;;52.88;13.80;;;6.30;78.40;;;;;;4958510;28;20042;-66
2021/10/17 03:18:54;;;;;;;42.20;14.18;;;6.40;78.50;;;;;;4959905;28;20039;-66
2021/10/17 03:21:19;;;;;;;57.63;14.13;;;6.40;78.50;;;;;;4960694;28;20142;-66
2021/10/17 03:23:45;;;;;;;50.70;13.70;;;6.40;78.50;;;;;;4958591;28;20046;-67
2021/10/17 03:26:10;;;;;;;72.60;15.13;;;6.40;78.40;;;;;;4959468;28;20030;-66
2021/10/17 03:28:36;;;;;;;24.17;14.18;;;6.40;78.40;;;;;;4958646;28;20046;-67
2021/10/17 03:31:05;;;;;;;23.67;12.70;;;6.40;78.50;;;;;;4959365;28;20034;-66
2021/10/17 03:33:31;;;;;;;24.38;13.00;;;6.40;78.50;;;;;;4959556;28;20102;-67
2021/10/17 03:35:57;;;;;;;36.10;12.57;;;6.40;78.60;;;;;;4957451;28;20450;-67
2021/10/17 03:38:22;;;;;;;40.55;13.43;;;6.40;78.60;;;;;;4959789;28;20529;-66
2021/10/17 03:40:48;;;;;;;30.17;13.20;;;6.40;78.70;;;;;;4959759;28;20074;-66
2021/10/17 03:43:14;;;;;;;45.08;12.93;;;6.50;78.70;;;;;;4959570;28;20055;-66
2021/10/17 03:45:40;;;;;;;26.05;12.73;;;6.40;78.60;;;;;;4958518;28;20035;-66
2021/10/17 03:48:06;;;;;;;20.75;12.68;;;6.50;78.60;;;;;;4959890;28;20553;-66
2021/10/17 03:50:32;;;;;;;28.33;13.15;;;6.50;78.60;;;;;;4958444;28;20039;-66
2021/10/17 03:52:58;;;;;;;22.77;12.05;;;6.50;78.70;;;;;;4959601;28;20035;-67
2021/10/17 03:55:24;;;;;;;33.10;12.43;;;6.40;78.60;;;;;;4959028;28;20130;-66
2021/10/17 03:57:49;;;;;;;30.92;13.38;;;6.50;78.70;;;;;;4958574;28;20054;-66
2021/10/17 04:00:15;;;;;;;18.67;11.65;;;6.50;78.70;;;;;;4958786;28;20067;-66
2021/10/17 04:02:40;;;;;;;19.05;12.55;;;6.50;78.80;;;;;;4954238;28;20628;-67
2021/10/17 04:05:07;;;;;;;21.60;12.65;;;6.40;78.90;;;;;;4957099;28;20031;-67
2021/10/17 04:07:34;;;;;;;23.15;13.10;;;6.40;79.00;;;;;;4957464;28;20055;-67
2021/10/17 04:10:00;;;;;;;18.95;12.35;;;6.50;79.10;;;;;;4958724;28;20537;-65
2021/10/17 04:12:25;;;;;;;18.58;11.73;;;6.50;79.20;;;;;;4960304;28;20053;-67
2021/10/17 04:14:51;;;;;;;22.75;11.98;;;6.50;79.00;;;;;;4957930;28;20031;-67
2021/10/17 04:17:16;;;;;;;18.63;11.90;;;6.50;79.00;;;;;;4959709;28;20043;-66
2021/10/17 04:19:42;;;;;;;19.83;12.25;;;6.50;79.00;;;;;;4959186;28;20047;-66
2021/10/17 04:22:08;;;;;;;23.48;12.50;;;6.50;79.00;;;;;;4957976;28;20058;-67
2021/10/17 04:24:33;;;;;;;20.05;12.77;;;6.50;79.00;;;;;;4958420;28;20038;-67
2021/10/17 04:26:59;;;;;;;19.40;12.85;;;6.50;79.00;;;;;;4958806;28;20039;-67
2021/10/17 04:29:24;;;;;;;21.60;13.40;;;6.50;79.00;;;;;;4960462;28;20138;-67
2021/10/17 04:31:50;;;;;;;24.77;13.15;;;6.50;79.10;;;;;;4958073;28;20038;-66
2021/10/17 04:34:15;;;;;;;19.13;11.25;;;6.50;79.20;;;;;;4958123;28;20047;-65
2021/10/17 04:36:41;;;;;;;18.80;11.98;;;6.50;79.10;;;;;;4958828;28;20046;-66
2021/10/17 04:39:07;;;;;;;23.00;13.52;;;6.60;79.30;;;;;;4959609;28;20506;-67
2021/10/17 04:41:34;;;;;;;23.75;13.35;;;6.60;79.30;;;;;;4959818;28;20046;-66
2021/10/17 04:44:01;;;;;;;24.38;13.07;;;6.60;79.50;;;;;;4955922;28;20055;-65
2021/10/17 04:46:27;;;;;;;24.70;13.23;;;6.60;79.60;;;;;;4959208;28;20118;-67
2021/10/17 04:48:53;;;;;;;27.40;13.43;;;6.60;79.60;;;;;;4958865;28;20118;-66
2021/10/17 04:51:18;;;;;;;34.05;13.82;;;6.60;79.60;;;;;;4958443;28;20042;-66
2021/10/17 04:53:44;;;;;;;25.77;13.15;;;6.70;79.80;;;;;;4957517;28;20022;-66
2021/10/17 04:56:09;;;;;;;35.05;13.60;;;6.70;79.90;;;;;;4958619;28;20031;-67
2021/10/17 04:58:36;;;;;;;45.05;12.95;;;6.80;80.00;;;;;;4959232;28;20043;-67
2021/10/17 05:01:02;;;;;;;51.22;13.43;;;6.80;79.90;;;;;;4958208;28;20113;-67
2021/10/17 05:03:28;;;;;;;53.53;13.68;;;6.80;79.80;;;;;;4960303;28;20067;-65
2021/10/17 05:05:54;;;;;;;39.42;12.82;;;6.80;79.80;;;;;;4974852;28;20675;-67
2021/10/17 05:08:19;;;;;;;61.13;13.30;;;6.80;79.90;;;;;;4960645;28;20038;-67
2021/10/17 05:10:45;;;;;;;40.42;14.25;;;6.90;80.00;;;;;;4957538;28;20058;-66
2021/10/17 05:13:10;;;;;;;47.95;14.63;;;6.80;80.10;;;;;;4960666;28;20039;-66
2021/10/17 05:15:36;;;;;;;39.60;14.15;;;6.80;80.20;;;;;;4959440;28;20043;-66
2021/10/17 05:18:02;;;;;;;29.85;12.65;;;6.90;80.30;;;;;;4957039;28;20035;-67
2021/10/17 05:20:28;;;;;;;34.90;13.75;;;6.90;80.40;;;;;;4961651;28;20035;-66
2021/10/17 05:22:53;;;;;;;61.33;13.88;;;6.90;80.50;;;;;;4958564;28;20407;-67
2021/10/17 05:25:19;;;;;;;44.38;14.02;;;6.90;80.60;;;;;;4960363;28;20049;-66
2021/10/17 05:27:44;;;;;;;57.53;13.70;;;6.90;80.70;;;;;;4960580;28;20978;-67
2021/10/17 05:30:10;;;;;;;51.47;13.75;;;7.00;80.80;;;;;;4957278;28;20046;-67
2021/10/17 05:32:36;;;;;;;53.63;13.57;;;7.00;80.70;;;;;;4955806;28;20181;-67
2021/10/17 05:35:02;;;;;;;56.13;12.23;;;7.10;80.70;;;;;;4957348;28;20140;-66
2021/10/17 05:37:27;;;;;;;64.93;12.88;;;7.10;80.70;;;;;;4959966;28;20447;-66
2021/10/17 05:39:53;;;;;;;39.42;11.52;;;7.10;80.70;;;;;;4959364;28;20039;-66
2021/10/17 05:42:18;;;;;;;59.38;13.32;;;7.10;80.70;;;;;;4956648;28;20038;-65
2021/10/17 05:44:44;;;;;;;66.78;12.63;;;7.10;81.20;;;;;;4961003;28;20391;-67
2021/10/17 05:47:10;;;;;;;48.30;10.90;;;7.10;80.60;;;;;;4957364;28;20627;-67
2021/10/17 05:49:35;;;;;;;47.58;11.27;;;7.10;80.50;;;;;;4958587;28;20071;-66
2021/10/17 05:52:01;;;;;;;49.30;10.52;;;7.10;80.50;;;;;;4960298;28;20038;-66
2021/10/17 05:54:26;;;;;;;41.47;11.27;;;7.10;80.50;;;;;;4961021;28;20065;-66
2021/10/17 05:56:52;;;;;;;32.53;10.00;;;7.10;80.50;;;;;;4960144;28;20102;-67
2021/10/17 05:59:18;;;;;;;31.15;10.68;;;7.10;80.50;;;;;;4961153;28;20027;-66
2021/10/17 06:01:43;;;;;;;34.55;10.55;;;7.10;80.50;;;;;;4958553;28;20090;-65
2021/10/17 06:04:10;;;;;;;33.25;10.98;;;7.10;80.60;;;;;;4958441;28;20034;-66
2021/10/17 06:06:42;;;;;;;32.40;9.93;;;7.10;80.50;;;;;;4958630;28;20529;-67
2021/10/17 06:09:09;;;;;;;32.95;10.85;;;7.10;80.70;;;;;;4961219;28;20035;-67
2021/10/17 06:11:35;;;;;;;30.15;10.10;;;7.10;80.60;;;;;;4965185;28;20118;-65
2021/10/17 06:14:01;;;;;;;24.13;10.52;;;7.10;80.80;;;;;;4961665;28;20418;-65
2021/10/17 06:16:26;;;;;;;23.08;9.75;;;7.10;80.80;;;;;;4963715;28;20039;-67
2021/10/17 06:18:52;;;;;;;24.63;10.60;;;7.00;80.80;;;;;;4961141;28;20038;-67
2021/10/17 06:21:18;;;;;;;20.00;10.52;;;7.10;81.00;;;;;;4961965;28;20510;-67
2021/10/17 06:23:44;;;;;;;47.65;11.40;;;7.10;81.20;;;;;;4960398;28;20042;-67
2021/10/17 06:26:09;;;;;;;23.10;10.50;;;7.10;81.20;;;;;;4961967;28;20027;-66
2021/10/17 06:28:35;;;;;;;31.67;12.10;;;7.10;81.20;;;;;;4959643;28;20045;-67
2021/10/17 06:31:00;;;;;;;32.08;11.05;;;7.10;81.20;;;;;;4960107;28;20147;-65
2021/10/17 06:33:26;;;;;;;36.17;11.55;;;7.10;81.30;;;;;;4960691;28;20050;-67
2021/10/17 06:35:51;;;;;;;30.48;11.52;;;7.10;81.20;;;;;;4958808;28;20039;-67
2021/10/17 06:38:17;;;;;;;36.50;11.32;;;7.20;81.30;;;;;;4961260;28;20077;-66
2021/10/17 06:40:43;;;;;;;55.17;12.38;;;7.20;81.30;;;;;;4959943;28;20030;-66
2021/10/17 06:43:08;;;;;;;53.75;11.50;;;7.20;81.30;;;;;;4961503;28;20130;-66
2021/10/17 06:45:34;;;;;;;93.95;13.73;;;7.30;81.30;;;;;;4961159;28;20045;-67
2021/10/17 06:47:59;;;;;;;58.33;12.05;;;7.30;81.30;;;;;;4960928;28;20114;-67
2021/10/17 06:50:25;;;;;;;70.18;11.20;;;7.30;81.30;;;;;;4961366;28;20118;-68
2021/10/17 06:52:51;;;;;;;30.67;10.90;;;7.30;81.30;;;;;;4960814;28;20039;-67
2021/10/17 06:55:17;;;;;;;72.15;11.50;;;7.30;81.30;;;;;;4960050;28;20090;-67
2021/10/17 06:57:45;;;;;;;44.35;11.77;;;7.40;81.50;;;;;;4960575;28;20074;-67
2021/10/17 07:00:11;;;;;;;62.90;11.23;;;7.40;81.40;;;;;;4948969;28;20042;-67
2021/10/17 07:02:36;;;;;;;83.75;12.30;;;7.40;81.20;;;;;;4957776;28;20035;-67
2021/10/17 07:05:03;;;;;;;48.95;11.50;;;7.40;81.20;;;;;;4958581;28;20030;-67
2021/10/17 07:07:29;;;;;;;30.23;10.40;;;7.40;81.00;;;;;;4958866;28;20042;-67
2021/10/17 07:09:55;;;;;;;52.75;11.38;;;7.40;81.00;;;;;;4959434;28;20034;-67
2021/10/17 07:12:20;;;;;;;44.05;11.27;;;7.40;81.20;;;;;;4972800;28;20039;-67
2021/10/17 07:14:46;;;;;;;56.33;11.93;;;7.40;81.20;;;;;;4956290;28;20071;-67
2021/10/17 07:17:11;;;;;;;150.35;13.43;;;7.40;81.50;;;;;;4960767;28;20443;-66
2021/10/17 07:19:37;;;;;;;26.15;10.57;;;7.40;81.40;;;;;;4964080;28;20039;-66
2021/10/17 07:22:03;;;;;;;83.18;11.20;;;7.40;81.40;;;;;;4955286;28;20105;-67
2021/10/17 07:24:28;;;;;;;81.38;11.35;;;7.30;81.50;;;;;;4958484;28;20653;-67
2021/10/17 07:26:54;;;;;;;69.60;12.00;;;7.40;81.60;;;;;;4958113;28;20031;-66
2021/10/17 07:29:19;;;;;;;69.88;12.45;;;7.40;81.70;;;;;;4960068;28;20121;-66
2021/10/17 07:31:45;;;;;;;51.47;11.25;;;7.30;81.80;;;;;;4959797;28;20058;-65
2021/10/17 07:34:11;;;;;;;24.10;10.55;;;7.40;82.00;;;;;;4959659;28;20877;-66
2021/10/17 07:36:36;;;;;;;40.70;11.13;;;7.40;82.00;;;;;;4959319;28;20506;-67
2021/10/17 07:39:03;;;;;;;29.45;11.07;;;7.40;82.00;;;;;;4959473;28;20106;-66
2021/10/17 07:41:29;;;;;;;33.80;11.80;;;7.50;82.10;;;;;;4957939;28;20031;-67
2021/10/17 07:43:54;;;;;;;26.88;10.60;;;7.50;82.00;;;;;;4956076;28;20034;-66
2021/10/17 07:46:20;;;;;;;39.47;10.38;;;7.50;81.80;;;;;;4958778;28;20402;-67
2021/10/17 07:48:46;;;;;;;40.53;9.95;;;7.60;81.50;;;;;;4963523;28;20039;-66
2021/10/17 07:51:12;;;;;;;19.92;10.05;;;7.60;81.30;;;;;;4957286;28;20090;-66
2021/10/17 07:53:37;;;;;;;32.55;9.45;;;7.50;81.30;;;;;;4960014;28;20035;-67
2021/10/17 07:56:03;;;;;;;29.83;10.30;;;7.50;81.30;;;;;;4960262;28;20085;-67
2021/10/17 07:58:29;;;;;;;27.90;11.38;;;7.50;81.40;;;;;;4960666;28;20028;-66
2021/10/17 08:00:54;;;;;;;23.63;10.65;;;7.50;81.70;;;;;;4962572;28;20478;-67
2021/10/17 08:03:21;;;;;;;37.95;11.25;;;7.50;82.60;;;;;;4957405;28;20043;-67
2021/10/17 08:05:46;;;;;;;34.60;10.48;;;7.50;81.90;;;;;;4956460;28;20046;-67
2021/10/17 08:08:12;;;;;;;23.33;9.98;;;7.50;82.00;;;;;;4956584;28;20515;-66
2021/10/17 08:10:38;;;;;;;56.50;11.55;;;7.50;81.90;;;;;;4958319;28;20582;-67
2021/10/17 08:13:07;;;;;;;25.17;10.85;;;7.60;81.90;;;;;;4959387;28;20039;-65
2021/10/17 08:15:32;;;;;;;35.03;10.82;;;7.60;81.90;;;;;;4956971;28;20066;-67
2021/10/17 08:17:58;;;;;;;42.78;11.30;;;7.60;82.00;;;;;;4958217;28;20526;-68
2021/10/17 08:20:24;;;;;;;52.35;11.07;;;7.60;82.10;;;;;;4957261;28;20147;-67
2021/10/17 08:22:49;;;;;;;54.00;11.15;;;7.60;82.10;;;;;;4958420;28;20047;-67
2021/10/17 08:25:15;;;;;;;59.30;10.43;;;7.60;82.10;;;;;;4958550;28;20341;-67
2021/10/17 08:27:41;;;;;;;64.45;10.57;;;7.60;82.00;;;;;;4958765;28;20054;-67
2021/10/17 08:30:09;;;;;;;25.52;10.63;;;7.60;82.00;;;;;;4958821;28;20046;-67
2021/10/17 08:32:36;;;;;;;28.88;11.02;;;7.70;82.20;;;;;;4960284;28;20034;-67
2021/10/17 08:35:02;;;;;;;39.67;11.50;;;7.70;82.20;;;;;;4960124;28;20075;-66
2021/10/17 08:37:30;;;;;;;25.02;10.55;;;7.70;82.30;;;;;;4965364;28;20037;-67
2021/10/17 08:39:55;;;;;;;24.88;10.35;;;7.80;82.30;;;;;;4961879;28;20069;-67
2021/10/17 08:42:21;;;;;;;42.05;10.55;;;7.80;82.20;;;;;;4963776;28;20047;-67
2021/10/17 08:44:47;;;;;;;50.33;11.93;;;7.90;82.40;;;;;;4960651;28;20563;-66
2021/10/17 08:47:17;;;;;;;17.75;10.65;;;7.90;82.30;;;;;;4963551;28;20059;-67
2021/10/17 08:49:44;;;;;;;22.80;10.57;;;7.90;82.20;;;;;;4964670;28;20039;-67
2021/10/17 08:52:10;;;;;;;40.45;11.00;;;8.00;82.50;;;;;;4960087;28;20084;-67
2021/10/17 08:54:39;;;;;;;24.73;11.40;;;8.00;82.70;;;;;;4962076;28;20476;-66
2021/10/17 08:57:05;;;;;;;46.35;10.70;;;8.00;82.60;;;;;;4964659;28;20417;-67
2021/10/17 08:59:31;;;;;;;62.78;10.77;;;8.10;82.50;;;;;;4963403;28;20039;-68
2021/10/17 09:01:57;;;;;;;90.22;11.27;;;8.20;82.20;;;;;;4963710;28;20046;-67
2021/10/17 09:04:27;;;;;;;18.00;10.38;;;8.20;82.00;;;;;;4962172;28;20042;-67
2021/10/17 09:06:53;;;;;;;43.90;11.15;;;8.20;82.20;;;;;;4963263;28;20140;-67
2021/10/17 09:09:19;;;;;;;17.13;11.63;;;8.20;82.20;;;;;;4962642;28;20502;-66
2021/10/17 09:11:51;;;;;;;23.55;11.57;;;8.20;82.30;;;;;;4963984;28;20561;-67
2021/10/17 09:14:24;;;;;;;19.23;12.48;;;8.20;82.60;;;;;;4961586;28;20039;-68
2021/10/17 09:16:52;;;;;;;24.00;11.15;;;8.20;82.60;;;;;;4963723;28;20074;-67
2021/10/17 09:19:22;;;;;;;32.40;11.45;;;8.30;83.50;;;;;;4963365;28;20097;-67
2021/10/17 09:22:07;;;;;;;38.33;11.63;;;8.30;82.70;;;;;;4960984;28;20118;-67
2021/10/17 09:24:34;;;;;;;17.95;11.43;;;8.40;82.80;;;;;;4960144;28;20049;-67
2021/10/17 09:27:08;;;;;;;20.23;11.52;;;8.40;82.40;;;;;;4962803;28;20569;-67
2021/10/17 09:29:35;;;;;;;36.13;11.52;;;8.50;82.70;;;;;;4963720;28;20039;-68
2021/10/17 09:32:01;;;;;;;25.27;11.48;;;8.60;82.70;;;;;;4961574;28;20090;-68
2021/10/17 09:34:30;;;;;;;36.70;12.18;;;8.60;82.50;;;;;;4963362;28;20043;-67
2021/10/17 09:37:12;;;;;;;33.15;14.40;;;8.60;82.60;;;;;;4963528;28;20057;-68
2021/10/17 09:39:44;;;;;;;24.25;15.88;;;8.70;82.70;;;;;;4962342;28;20042;-67
2021/10/17 09:42:21;;;;;;;23.63;11.88;;;8.70;82.40;;;;;;4961505;28;20475;-67
2021/10/17 09:44:47;;;;;;;16.17;11.48;;;8.70;82.50;;;;;;4961699;28;20457;-67
2021/10/17 09:47:13;;;;;;;15.40;11.05;;;8.80;82.50;;;;;;4962050;28;20027;-67
2021/10/17 09:49:40;;;;;;;16.27;11.70;;;8.90;82.60;;;;;;4962298;28;20035;-67
2021/10/17 09:52:17;;;;;;;19.05;11.57;;;8.90;82.60;;;;;;4977248;28;20042;-67
2021/10/17 09:55:08;;;;;;;17.65;11.52;;;9.00;82.80;;;;;;4963139;28;20129;-68
2021/10/17 09:57:37;;;;;;;30.90;22.83;;;9.10;83.10;;;;;;4962382;28;20061;-67
2021/10/17 10:00:04;;;;;;;19.30;14.38;;;9.10;82.70;;;;;;4961776;28;20043;-67
2021/10/17 10:02:30;;;;;;;19.15;13.07;;;9.20;82.50;;;;;;4964712;28;20054;-67
2021/10/17 10:04:57;;;;;;;19.60;12.70;;;9.30;82.60;;;;;;4962018;28;20294;-67
2021/10/17 10:07:26;;;;;;;18.65;12.85;;;9.30;83.50;;;;;;4962144;28;20038;-67
2021/10/17 10:09:54;;;;;;;19.13;12.77;;;9.40;82.70;;;;;;4962823;28;20031;-67
2021/10/17 10:12:23;;;;;;;23.95;13.77;;;9.50;82.60;;;;;;4962399;28;20151;-68
2021/10/17 10:14:50;;;;;;;17.02;11.82;;;9.50;82.40;;;;;;4961112;28;20098;-68
2021/10/17 10:17:17;;;;;;;19.30;13.45;;;9.60;82.40;;;;;;4961237;28;20039;-67
2021/10/17 10:19:44;;;;;;;19.27;13.60;;;9.60;82.30;;;;;;4961343;28;20035;-68
2021/10/17 10:22:12;;;;;;;20.45;12.85;;;9.70;82.20;;;;;;4960067;28;20035;-67
2021/10/17 10:24:38;;;;;;;19.70;13.73;;;9.80;82.20;;;;;;4960445;28;20035;-67
2021/10/17 10:27:04;;;;;;;18.63;13.27;;;9.80;82.10;;;;;;4961858;28;20081;-67
2021/10/17 10:29:34;;;;;;;20.02;13.35;;;9.90;82.20;;;;;;4962390;28;20034;-68
2021/10/17 10:32:02;;;;;;;20.35;13.80;;;9.90;82.20;;;;;;4961665;28;20031;-67
2021/10/17 10:34:37;;;;;;;18.67;13.13;;;10.00;82.10;;;;;;4960465;28;20414;-68
2021/10/17 10:37:21;;;;;;;18.17;13.20;;;10.00;82.10;;;;;;4960895;28;20039;-67
2021/10/17 10:40:02;;;;;;;19.85;13.45;;;10.10;82.00;;;;;;4960901;28;20057;-68
2021/10/17 10:42:40;;;;;;;19.70;12.45;;;10.10;81.70;;;;;;4962351;28;20523;-68
2021/10/17 10:45:25;;;;;;;20.55;13.68;;;10.10;81.50;;;;;;4961343;28;20126;-67
2021/10/17 10:48:18;;;;;;;;;;;10.20;81.60;;;;;;4961962;28;20043;-68
2021/10/17 10:50:47;;;;;;;21.60;14.23;;;10.20;81.70;;;;;;4958862;28;19964;-68
2021/10/17 10:53:48;;;;;;;24.60;15.13;;;10.20;81.20;;;;;;4962047;28;20031;-67
2021/10/17 10:56:44;;;;;;;23.13;15.02;;;10.20;81.80;;;;;;4960773;28;20446;-67
2021/10/17 10:59:10;;;;;;;22.55;14.60;;;10.20;82.10;;;;;;4960076;28;20062;-67
2021/10/17 11:01:52;;;;;;;21.40;13.77;;;10.20;81.90;;;;;;4959925;28;20046;-67
2021/10/17 11:04:44;;;;;;;27.10;14.10;;;10.30;82.20;;;;;;4961034;28;20027;-68
2021/10/17 11:07:20;;;;;;;20.30;13.02;;;10.30;82.00;;;;;;4958580;28;20037;-67
2021/10/17 11:09:47;;;;;;;19.60;13.13;;;10.40;81.90;;;;;;4960391;28;20038;-67
2021/10/17 11:12:43;;;;;;;20.85;12.93;;;10.40;81.70;;;;;;4961024;28;20098;-67
2021/10/17 11:15:20;;;;;;;22.38;13.93;;;10.50;82.00;;;;;;4959465;28;20514;-68
2021/10/17 11:17:55;;;;;;;20.52;13.48;;;10.50;81.70;;;;;;4975283;28;20057;-68
2021/10/17 11:20:24;;;;;;;23.30;16.10;;;10.50;81.80;;;;;;4958918;28;20042;-67
2021/10/17 11:22:50;;;;;;;21.13;13.82;;;10.50;81.80;;;;;;4958870;28;20097;-68
2021/10/17 11:25:18;;;;;;;20.23;13.73;;;10.50;81.60;;;;;;4960225;28;20049;-68
2021/10/17 11:27:44;;;;;;;23.00;14.77;;;10.60;81.50;;;;;;4960512;28;20039;-68
2021/10/17 11:30:34;;;;;;;20.50;13.65;;;10.60;81.40;;;;;;4959236;28;20119;-68
2021/10/17 11:33:04;;;;;;;21.55;14.95;;;10.60;81.80;;;;;;4959872;28;20031;-67
2021/10/17 11:35:34;;;;;;;20.38;13.85;;;10.60;81.60;;;;;;4958302;28;20126;-67
2021/10/17 11:38:05;;;;;;;20.75;13.65;;;10.70;81.60;;;;;;4959018;28;20041;-67
2021/10/17 11:40:33;;;;;;;19.30;12.88;;;10.70;81.50;;;;;;4962080;28;20397;-68
2021/10/17 11:43:02;;;;;;;19.73;13.82;;;10.70;81.50;;;;;;4960054;28;20042;-68
2021/10/17 11:45:33;;;;;;;17.65;12.93;;;10.80;81.50;;;;;;4959333;28;20027;-67
2021/10/17 11:48:01;;;;;;;19.35;13.30;;;10.80;81.40;;;;;;4961522;28;21919;-68
2021/10/17 11:50:30;;;;;;;17.80;12.45;;;10.80;81.30;;;;;;4960081;28;20424;-68
2021/10/17 11:52:58;;;;;;;19.35;12.73;;;10.90;81.30;;;;;;4959607;28;20444;-68
2021/10/17 11:55:52;;;;;;;17.15;12.43;;;11.00;81.30;;;;;;4960674;28;20122;-68
2021/10/17 11:58:20;;;;;;;17.42;12.20;;;11.00;81.40;;;;;;4960898;28;20038;-68
2021/10/17 12:00:47;;;;;;;17.52;12.52;;;11.00;81.00;;;;;;4958142;28;20407;-67
2021/10/17 12:03:17;;;;;;;20.48;14.05;;;11.00;81.00;;;;;;4959313;28;20077;-68
2021/10/17 12:05:43;;;;;;;22.90;13.75;;;11.00;81.00;;;;;;4959345;28;20032;-68
2021/10/17 12:08:23;;;;;;;22.55;13.82;;;11.00;81.00;;;;;;4960167;28;20046;-66
2021/10/17 12:11:05;;;;;;;19.75;13.38;;;11.10;81.30;;;;;;4955945;28;20039;-67
2021/10/17 12:13:49;;;;;;;20.83;14.55;;;11.10;81.30;;;;;;4963021;28;20094;-67
2021/10/17 12:16:17;;;;;;;20.23;14.13;;;11.10;81.40;;;;;;4962252;28;20527;-67
2021/10/17 12:18:52;;;;;;;22.00;14.73;;;11.10;81.20;;;;;;4960882;28;20505;-67
2021/10/17 12:21:27;;;;;;;18.27;12.93;;;11.20;81.20;;;;;;4962275;28;20033;-67
2021/10/17 12:23:53;;;;;;;19.92;13.85;;;11.20;81.00;;;;;;4959835;28;20046;-67
2021/10/17 12:26:22;;;;;;;21.35;15.20;;;11.20;80.90;;;;;;4964011;28;20725;-67
2021/10/17 12:29:12;;;;;;;23.65;14.70;;;11.30;80.80;;;;;;4961926;28;20214;-68
2021/10/17 12:31:45;;;;;;;19.90;14.13;;;11.30;81.20;;;;;;4964747;28;20031;-67
2021/10/17 12:34:11;;;;;;;19.83;14.25;;;11.30;81.10;;;;;;4958301;28;20046;-66
2021/10/17 12:36:42;;;;;;;20.23;14.00;;;11.30;80.90;;;;;;4956614;28;20062;-66
2021/10/17 12:39:13;;;;;;;20.30;14.45;;;11.30;80.80;;;;;;4969772;28;20031;-66